createdAt,value
2019-04-01T00:01:02.257Z,13.70
2019-04-01T00:03:35.144Z,11.80
2019-04-01T00:06:08.137Z,13.27
2019-04-01T00:08:40.952Z,10.73
2019-04-01T00:11:13.825Z,11.77
2019-04-01T00:13:46.801Z,9.13
2019-04-01T00:16:20.674Z,11.50
2019-04-01T00:19:02.997Z,11.57
2019-04-01T00:21:28.480Z,12.13
2019-04-01T00:24:01.452Z,10.90
2019-04-01T00:26:34.425Z,9.23
2019-04-01T00:29:07.441Z,10.10
2019-04-01T00:31:40.522Z,12.67
2019-04-01T00:34:13.571Z,8.20
2019-04-01T00:36:46.641Z,9.07
2019-04-01T00:39:19.612Z,10.17
2019-04-01T00:41:52.624Z,10.23
2019-04-01T00:44:25.700Z,13.50
2019-04-01T00:46:58.749Z,9.07
2019-04-01T00:49:31.712Z,8.80
2019-04-01T00:52:04.731Z,11.03
2019-04-01T00:54:37.784Z,9.60
2019-04-01T00:57:10.798Z,10.20
2019-04-01T00:59:43.846Z,10.80
2019-04-01T01:02:16.938Z,9.43
2019-04-01T01:04:49.960Z,8.60
2019-04-01T01:07:24.317Z,5.97
2019-04-01T01:09:57.281Z,10.10
2019-04-01T01:12:30.224Z,9.97
2019-04-01T01:15:03.816Z,8.07
2019-04-01T01:17:36.808Z,7.97
2019-04-01T01:20:09.892Z,16.27
2019-04-01T01:22:42.900Z,6.50
2019-04-01T01:25:15.866Z,13.43
2019-04-01T01:27:48.795Z,13.93
2019-04-01T01:30:21.689Z,9.20
2019-04-01T01:32:54.681Z,8.63
2019-04-01T01:35:27.655Z,8.03
2019-04-01T01:38:00.905Z,11.70
2019-04-01T01:40:33.805Z,16.83
2019-04-01T01:43:06.876Z,8.27
2019-04-01T01:45:40.716Z,13.77
2019-04-01T01:48:13.793Z,7.03
2019-04-01T01:50:46.840Z,13.07
2019-04-01T01:53:19.788Z,11.93
2019-04-01T01:55:52.770Z,6.93
2019-04-01T01:58:26.121Z,10.50
2019-04-01T02:00:59.173Z,11.40
2019-04-01T02:03:32.176Z,10.43
2019-04-01T02:06:05.231Z,10.13
2019-04-01T02:08:38.237Z,11.77
2019-04-01T02:11:11.148Z,14.73
2019-04-01T02:13:44.085Z,9.97
2019-04-01T02:16:17.132Z,11.70
2019-04-01T02:18:50.120Z,9.37
2019-04-01T02:21:23.038Z,7.67
2019-04-01T02:23:56.021Z,8.10
2019-04-01T02:26:29.068Z,13.90
2019-04-01T02:29:02.133Z,8.10
2019-04-01T02:31:35.198Z,12.17
2019-04-01T02:34:08.304Z,15.07
2019-04-01T02:36:41.344Z,11.10
2019-04-01T02:39:13.932Z,12.37
2019-04-01T02:41:46.898Z,8.80
2019-04-01T02:44:19.480Z,11.60
2019-04-01T02:46:52.533Z,9.40
2019-04-01T02:49:25.549Z,7.80
2019-04-01T02:51:58.590Z,10.33
2019-04-01T02:54:31.604Z,11.60
2019-04-01T02:57:04.654Z,10.47
2019-04-01T02:59:37.831Z,10.10
2019-04-01T03:02:10.797Z,11.23
2019-04-01T03:04:43.805Z,9.50
2019-04-01T03:07:16.871Z,9.30
2019-04-01T03:09:50.361Z,11.87
2019-04-01T03:12:23.318Z,10.50
2019-04-01T03:14:56.304Z,9.23
2019-04-01T03:17:28.940Z,9.70
2019-04-01T03:20:01.573Z,13.53
2019-04-01T03:22:34.196Z,10.13
2019-04-01T03:25:06.778Z,14.23
2019-04-01T03:27:39.387Z,9.97
2019-04-01T03:30:12.125Z,9.87
2019-04-01T03:32:45.800Z,10.30
2019-04-01T03:35:18.577Z,11.73
2019-04-01T03:37:51.618Z,11.83
2019-04-01T03:40:24.714Z,12.43
2019-04-01T03:42:57.750Z,9.83
2019-04-01T03:45:30.822Z,7.70
2019-04-01T03:48:03.873Z,11.50
2019-04-01T03:50:36.865Z,10.63
2019-04-01T03:55:54.764Z,11.90
2019-04-01T03:58:27.719Z,7.93
2019-04-01T04:01:00.820Z,8.27
2019-04-01T04:03:33.868Z,13.33
2019-04-01T04:06:06.934Z,6.87
2019-04-01T04:08:39.958Z,11.10
2019-04-01T04:11:13.043Z,12.07
2019-04-01T04:13:46.137Z,6.90
2019-04-01T04:16:19.221Z,17.27
2019-04-01T04:18:51.778Z,6.63
2019-04-01T04:21:24.813Z,13.20
2019-04-01T04:23:57.712Z,12.50
2019-04-01T04:26:30.396Z,12.80
2019-04-01T04:29:03.024Z,7.43
2019-04-01T04:31:36.035Z,9.83
2019-04-01T04:34:09.199Z,14.40
2019-04-01T04:36:41.856Z,9.33
2019-04-01T04:39:14.838Z,10.00
2019-04-01T04:41:47.431Z,9.87
2019-04-01T04:44:20.083Z,14.10
2019-04-01T04:46:53.080Z,10.77
2019-04-01T04:49:25.725Z,10.07
2019-04-01T04:51:58.319Z,11.27
2019-04-01T04:54:30.884Z,14.03
2019-04-01T04:57:03.472Z,8.83
2019-04-01T04:59:36.297Z,9.87
2019-04-01T05:02:08.888Z,18.33
2019-04-01T05:04:41.861Z,10.20
2019-04-01T05:07:14.788Z,14.30
2019-04-01T05:09:47.769Z,11.37
2019-04-01T05:12:20.703Z,8.83
2019-04-01T05:14:53.753Z,13.70
2019-04-01T05:17:26.856Z,11.03
2019-04-01T05:19:59.524Z,12.30
2019-04-01T05:22:32.119Z,9.93
2019-04-01T05:25:05.088Z,9.93
2019-04-01T05:27:37.695Z,10.53
2019-04-01T05:30:10.340Z,12.57
2019-04-01T05:32:43.004Z,8.67
2019-04-01T05:35:15.643Z,12.63
2019-04-01T05:37:48.163Z,8.77
2019-04-01T05:40:21.140Z,13.03
2019-04-01T05:42:54.084Z,10.10
2019-04-01T05:45:27.083Z,10.23
2019-04-01T05:48:00.178Z,11.27
2019-04-01T05:50:33.148Z,11.93
2019-04-01T05:53:06.185Z,14.10
2019-04-01T05:55:39.553Z,10.23
2019-04-01T05:58:12.532Z,10.13
2019-04-01T06:00:45.355Z,8.13
2019-04-01T06:03:18.348Z,13.57
2019-04-01T06:05:51.408Z,10.87
2019-04-01T06:08:24.480Z,10.63
2019-04-01T06:10:57.456Z,11.67
2019-04-01T06:13:30.542Z,10.80
2019-04-01T06:16:03.778Z,9.20
2019-04-01T06:18:36.440Z,15.43
2019-04-01T06:21:09.438Z,14.07
2019-04-01T06:23:42.425Z,16.23
2019-04-01T06:26:15.396Z,11.40
2019-04-01T06:28:48.314Z,9.60
2019-04-01T06:31:21.332Z,10.97
2019-04-01T06:33:54.169Z,12.87
2019-04-01T06:36:27.221Z,11.27
2019-04-01T06:39:00.266Z,10.17
2019-04-01T06:41:33.244Z,12.53
2019-04-01T06:44:06.273Z,11.73
2019-04-01T06:46:39.289Z,7.80
2019-04-01T06:49:12.296Z,8.73
2019-04-01T06:51:45.284Z,8.27
2019-04-01T06:54:18.246Z,8.13
2019-04-01T06:56:51.155Z,10.70
2019-04-01T06:59:24.226Z,10.83
2019-04-01T07:01:57.284Z,7.97
2019-04-01T07:04:30.273Z,12.77
2019-04-01T07:07:17.863Z,9.63
2019-04-01T07:09:38.070Z,7.67
2019-04-01T07:12:11.150Z,8.33
2019-04-01T07:14:44.418Z,9.97
2019-04-01T07:17:17.424Z,6.53
2019-04-01T07:19:50.373Z,10.57
2019-04-01T07:22:23.455Z,8.03
2019-04-01T07:24:56.472Z,9.63
2019-04-01T07:27:29.592Z,9.70
2019-04-01T07:30:02.628Z,7.37
2019-04-01T07:32:35.664Z,9.17
2019-04-01T07:35:08.596Z,8.30
2019-04-01T07:37:41.564Z,11.43
2019-04-01T07:40:14.583Z,9.77
2019-04-01T07:42:47.708Z,9.83
2019-04-01T07:45:20.655Z,10.23
2019-04-01T07:47:53.607Z,8.83
2019-04-01T07:50:26.523Z,8.77
2019-04-01T07:52:59.504Z,10.47
2019-04-01T07:55:32.450Z,10.77
2019-04-01T07:58:05.536Z,9.67
2019-04-01T08:00:38.591Z,8.30
2019-04-01T08:03:11.478Z,9.03
2019-04-01T08:05:44.541Z,8.43
2019-04-01T08:08:17.391Z,9.77
2019-04-01T08:10:50.299Z,9.13
2019-04-01T08:13:23.201Z,11.47
2019-04-01T08:15:55.776Z,9.60
2019-04-01T08:18:28.753Z,10.83
2019-04-01T08:21:01.805Z,14.60
2019-04-01T08:23:34.897Z,12.00
2019-04-01T08:26:07.484Z,11.43
2019-04-01T08:28:40.376Z,12.97
2019-04-01T08:31:13.597Z,10.33
2019-04-01T08:33:50.035Z,7.43
2019-04-01T08:36:21.331Z,10.97
2019-04-01T08:38:55.530Z,9.87
2019-04-01T08:41:28.704Z,11.43
2019-04-01T08:44:03.350Z,10.77
2019-04-01T08:46:36.566Z,12.33
2019-04-01T08:49:09.613Z,12.20
2019-04-01T08:51:42.561Z,11.77
2019-04-01T08:54:15.604Z,12.53
2019-04-01T08:56:48.633Z,10.40
2019-04-01T08:59:21.588Z,13.27
2019-04-01T09:01:54.582Z,12.83
2019-04-01T09:04:27.612Z,14.23
2019-04-01T09:07:00.608Z,13.27
2019-04-01T09:09:33.569Z,8.83
2019-04-01T09:12:06.601Z,14.33
2019-04-01T09:14:39.746Z,13.27
2019-04-01T09:17:12.829Z,14.83
2019-04-01T09:19:45.811Z,13.90
2019-04-01T09:22:18.921Z,14.93
2019-04-01T09:24:51.904Z,14.30
2019-04-01T09:27:24.981Z,13.03
2019-04-01T09:29:57.978Z,11.80
2019-04-01T09:32:30.987Z,17.07
2019-04-01T09:35:04.556Z,19.47
2019-04-01T09:37:37.545Z,15.23
2019-04-01T09:40:10.440Z,13.97
2019-04-01T09:42:43.432Z,13.20
2019-04-01T09:45:16.389Z,18.50
2019-04-01T09:47:49.382Z,16.50
2019-04-01T09:50:22.276Z,15.30
2019-04-01T09:52:55.286Z,16.23
2019-04-01T09:55:28.303Z,15.80
2019-04-01T09:58:01.297Z,13.27
2019-04-01T10:00:34.268Z,14.13
2019-04-01T10:03:07.266Z,14.27
2019-04-01T10:05:40.230Z,14.43
2019-04-01T10:08:13.219Z,16.17
2019-04-01T10:10:46.202Z,13.37
2019-04-01T10:13:19.153Z,18.30
2019-04-01T10:15:52.231Z,16.60
2019-04-01T10:18:25.244Z,13.53
2019-04-01T10:20:58.304Z,19.03
2019-04-01T10:23:31.417Z,16.73
2019-04-01T10:26:04.457Z,15.20
2019-04-01T10:28:37.475Z,14.23
2019-04-01T10:31:10.513Z,13.97
2019-04-01T10:33:43.432Z,16.97
2019-04-01T10:36:16.413Z,17.77
2019-04-01T10:38:49.412Z,17.43
2019-04-01T10:41:22.453Z,16.70
2019-04-01T10:43:55.547Z,19.20
2019-04-01T10:46:28.473Z,15.30
2019-04-01T10:49:01.675Z,14.97
2019-04-01T10:51:34.706Z,17.13
2019-04-01T10:54:07.799Z,20.90
2019-04-01T10:56:40.915Z,19.87
2019-04-01T10:59:13.918Z,13.27
2019-04-01T11:01:46.934Z,17.07
2019-04-01T11:04:19.872Z,14.93
2019-04-01T11:06:53.790Z,20.67
2019-04-01T11:09:38.357Z,15.37
2019-04-01T11:12:01.421Z,17.37
2019-04-01T11:14:34.418Z,17.57
2019-04-01T11:17:07.394Z,13.17
2019-04-01T11:19:40.478Z,16.30
2019-04-01T11:22:13.462Z,15.10
2019-04-01T11:24:46.722Z,17.87
2019-04-01T11:27:19.781Z,15.30
2019-04-01T11:29:52.793Z,17.10
2019-04-01T11:32:25.724Z,15.60
2019-04-01T11:34:59.036Z,15.50
2019-04-01T11:37:32.026Z,15.47
2019-04-01T11:40:09.206Z,17.40
2019-04-01T11:42:40.891Z,14.70
2019-04-01T11:45:14.312Z,17.50
2019-04-01T11:47:47.436Z,18.10
2019-04-01T11:50:20.655Z,13.73
2019-04-01T11:52:53.356Z,13.27
2019-04-01T11:55:27.069Z,19.77
2019-04-01T11:58:00.208Z,16.53
2019-04-01T12:00:33.208Z,14.87
2019-04-01T12:03:06.205Z,16.70
2019-04-01T12:05:39.281Z,16.10
2019-04-01T12:08:12.319Z,16.07
2019-04-01T12:10:45.236Z,13.47
2019-04-01T12:13:18.202Z,15.40
2019-04-01T12:15:51.265Z,15.03
2019-04-01T12:18:24.294Z,14.77
2019-04-01T12:20:57.256Z,16.07
2019-04-01T12:23:30.253Z,13.83
2019-04-01T12:26:14.295Z,18.07
2019-04-01T12:28:37.966Z,14.60
2019-04-01T12:31:12.860Z,16.63
2019-04-01T12:33:45.767Z,12.93
2019-04-01T12:36:19.293Z,17.00
2019-04-01T12:38:53.853Z,16.27
2019-04-01T12:41:27.118Z,15.97
2019-04-01T12:44:00.089Z,17.03
2019-04-01T12:46:33.093Z,17.37
2019-04-01T12:49:06.147Z,18.57
2019-04-01T12:51:39.254Z,19.60
2019-04-01T12:54:12.328Z,15.07
2019-04-01T12:56:45.355Z,13.77
2019-04-01T12:59:18.399Z,15.83
2019-04-01T13:01:51.321Z,15.03
2019-04-01T13:04:24.292Z,14.37
2019-04-01T13:06:58.493Z,14.63
2019-04-01T13:09:31.540Z,12.53
2019-04-01T13:12:04.152Z,14.57
2019-04-01T13:14:39.982Z,14.50
2019-04-01T13:17:11.769Z,17.00
2019-04-01T13:19:45.026Z,15.50
2019-04-01T13:22:18.452Z,12.47
2019-04-01T13:24:51.505Z,14.13
2019-04-01T13:27:24.518Z,12.17
2019-04-01T13:29:57.567Z,14.37
2019-04-01T13:32:30.661Z,14.70
2019-04-01T13:35:04.285Z,21.97
2019-04-01T13:37:37.213Z,14.57
2019-04-01T13:40:10.182Z,17.37
2019-04-01T13:42:43.463Z,14.37
2019-04-01T13:45:16.853Z,10.10
2019-04-01T13:47:49.952Z,14.30
2019-04-01T13:50:22.953Z,15.30
2019-04-01T13:52:57.489Z,14.20
2019-04-01T13:55:30.527Z,13.37
2019-04-01T13:58:03.597Z,13.90
2019-04-01T14:00:36.579Z,15.33
2019-04-01T14:03:11.165Z,11.33
2019-04-01T14:05:44.472Z,14.97
2019-04-01T14:08:17.543Z,15.43
2019-04-01T14:10:50.531Z,12.87
2019-04-01T14:13:23.598Z,11.67
2019-04-01T14:15:56.577Z,10.43
2019-04-01T14:18:29.592Z,11.07
2019-04-01T14:21:15.181Z,12.90
2019-04-01T14:23:37.281Z,14.93
2019-04-01T14:26:10.259Z,14.40
2019-04-01T14:28:43.266Z,14.33
2019-04-01T14:31:19.149Z,12.50
2019-04-01T14:33:50.941Z,12.00
2019-04-01T14:36:23.926Z,10.83
2019-04-01T14:38:56.995Z,12.97
2019-04-01T14:41:30.101Z,14.93
2019-04-01T14:44:03.147Z,13.97
2019-04-01T14:46:36.126Z,13.27
2019-04-01T14:49:09.201Z,13.73
2019-04-01T14:51:42.613Z,14.67
2019-04-01T14:54:15.635Z,14.83
2019-04-01T14:56:48.769Z,13.10
2019-04-01T14:59:21.806Z,13.43
2019-04-01T15:01:54.758Z,11.83
2019-04-01T15:04:27.845Z,14.37
2019-04-01T15:07:00.865Z,13.27
2019-04-01T15:09:34.073Z,13.37
2019-04-01T15:12:07.034Z,13.93
2019-04-01T15:14:40.137Z,12.73
2019-04-01T15:17:13.239Z,12.97
2019-04-01T15:19:48.495Z,16.37
2019-04-01T15:22:20.985Z,14.33
2019-04-01T15:24:54.884Z,14.20
2019-04-01T15:27:27.858Z,15.80
2019-04-01T15:30:00.845Z,11.53
2019-04-01T15:32:33.818Z,17.10
2019-04-01T15:35:06.836Z,12.67
2019-04-01T15:37:39.893Z,15.23
2019-04-01T15:40:13.560Z,12.63
2019-04-01T15:42:46.600Z,12.47
2019-04-01T15:45:19.602Z,13.07
2019-04-01T15:47:52.528Z,14.10
2019-04-01T15:50:28.876Z,12.20
2019-04-01T15:53:00.210Z,13.00
2019-04-01T15:55:33.220Z,12.67
2019-04-01T15:58:06.189Z,11.90
2019-04-01T16:00:39.270Z,12.70
2019-04-01T16:03:12.326Z,15.00
2019-04-01T16:05:45.309Z,17.43
2019-04-01T16:08:18.365Z,15.13
2019-04-01T16:10:51.446Z,17.83
2019-04-01T16:13:24.481Z,15.73
2019-04-01T16:15:57.404Z,15.90
2019-04-01T16:18:31.106Z,12.90
2019-04-01T16:21:04.411Z,14.90
2019-04-01T16:23:37.466Z,14.73
2019-04-01T16:26:10.660Z,19.13
2019-04-01T16:28:43.644Z,14.40
2019-04-01T16:31:16.570Z,15.30
2019-04-01T16:33:49.629Z,18.13
2019-04-01T16:36:22.638Z,18.93
2019-04-01T16:38:55.611Z,16.73
2019-04-01T16:41:28.697Z,16.90
2019-04-01T16:44:01.759Z,18.00
2019-04-01T16:46:34.730Z,15.67
2019-04-01T16:49:07.946Z,19.87
2019-04-01T16:51:41.429Z,14.50
2019-04-01T16:54:14.561Z,16.23
2019-04-01T16:56:47.629Z,16.30
2019-04-01T16:59:20.660Z,14.63
2019-04-01T17:01:53.773Z,15.27
2019-04-01T17:04:26.816Z,15.00
2019-04-01T17:06:59.864Z,15.57
2019-04-01T17:09:32.829Z,16.73
2019-04-01T17:12:05.787Z,14.27
2019-04-01T17:14:38.755Z,14.70
2019-04-01T17:17:11.741Z,14.23
2019-04-01T17:19:44.775Z,15.80
2019-04-01T17:22:17.861Z,14.43
2019-04-01T17:24:50.780Z,18.03
2019-04-01T17:27:23.781Z,17.47
2019-04-01T17:29:56.672Z,18.80
2019-04-01T17:32:29.673Z,17.47
2019-04-01T17:35:02.637Z,20.97
2019-04-01T17:37:35.632Z,15.50
2019-04-01T17:40:09.656Z,17.73
2019-04-01T17:42:42.757Z,17.90
2019-04-01T17:45:33.816Z,16.93
2019-04-01T17:48:07.084Z,14.77
2019-04-01T17:50:40.048Z,13.93
2019-04-01T17:53:13.060Z,12.93
2019-04-01T17:55:48.029Z,15.00
2019-04-01T17:58:20.782Z,15.30
2019-04-01T18:00:53.751Z,17.47
2019-04-01T18:03:26.740Z,14.27
2019-04-01T18:05:59.725Z,18.40
2019-04-01T18:08:34.054Z,16.83
2019-04-01T18:11:07.478Z,20.23
2019-04-01T18:13:40.488Z,18.23
2019-04-01T18:16:14.221Z,16.73
2019-04-01T18:18:47.649Z,16.80
2019-04-01T18:21:20.708Z,17.23
2019-04-01T18:23:54.126Z,18.40
2019-04-01T18:26:27.861Z,17.40
2019-04-01T18:29:00.860Z,16.97
2019-04-01T18:31:33.850Z,17.83
2019-04-01T18:34:06.832Z,19.83
2019-04-01T18:36:39.809Z,19.73
2019-04-01T18:39:12.737Z,18.17
2019-04-01T18:41:45.714Z,18.10
2019-04-01T18:44:18.946Z,15.77
2019-04-01T18:46:52.249Z,16.80
2019-04-01T18:49:26.092Z,23.30
2019-04-01T18:51:59.111Z,21.67
2019-04-01T18:54:32.117Z,22.10
2019-04-01T18:57:05.089Z,21.80
2019-04-01T18:59:38.087Z,19.43
2019-04-01T19:02:11.055Z,20.63
2019-04-01T19:04:44.131Z,21.07
2019-04-01T19:07:17.172Z,24.27
2019-04-01T19:09:50.162Z,20.73
2019-04-01T19:12:23.138Z,19.93
2019-04-01T19:14:56.220Z,23.57
2019-04-01T19:17:29.126Z,20.87
2019-04-01T19:20:02.138Z,19.50
2019-04-01T19:22:35.148Z,22.27
2019-04-01T19:25:08.636Z,25.30
2019-04-01T19:27:41.618Z,20.47
2019-04-01T19:30:14.886Z,18.63
2019-04-01T19:32:48.293Z,19.33
2019-04-01T19:35:21.279Z,20.57
2019-04-01T19:37:54.189Z,20.80
2019-04-01T19:40:27.204Z,17.37
2019-04-01T19:43:03.396Z,20.87
2019-04-01T19:45:34.837Z,19.00
2019-04-01T19:48:07.818Z,17.80
2019-04-01T19:50:40.815Z,18.33
2019-04-01T19:53:13.857Z,19.73
2019-04-01T19:55:46.856Z,18.17
2019-04-01T19:58:19.817Z,19.47
2019-04-01T20:00:52.733Z,17.50
2019-04-01T20:03:25.994Z,17.70
2019-04-01T20:05:59.049Z,22.33
2019-04-01T20:08:32.037Z,15.90
2019-04-01T20:11:04.975Z,17.13
2019-04-01T20:13:39.303Z,15.53
2019-04-01T20:16:13.042Z,17.30
2019-04-01T20:18:46.029Z,17.03
2019-04-01T20:21:18.609Z,16.30
2019-04-01T20:23:54.767Z,16.00
2019-04-01T20:26:26.456Z,15.60
2019-04-01T20:28:59.436Z,17.37
2019-04-01T20:31:32.369Z,15.50
2019-04-01T20:34:05.351Z,17.00
2019-04-01T20:36:38.268Z,20.80
2019-04-01T20:39:11.250Z,16.13
2019-04-01T20:41:44.287Z,17.60
2019-04-01T20:44:17.252Z,17.90
2019-04-01T20:46:50.299Z,17.63
2019-04-01T20:49:23.328Z,15.93
2019-04-01T20:51:56.367Z,17.40
2019-04-01T20:54:29.417Z,15.83
2019-04-01T20:57:05.016Z,13.63
2019-04-01T20:59:37.111Z,16.60
2019-04-01T21:02:10.188Z,17.00
2019-04-01T21:04:43.168Z,18.33
2019-04-01T21:07:16.195Z,16.77
2019-04-01T21:09:49.259Z,18.97
2019-04-01T21:12:22.203Z,17.40
2019-04-01T21:14:56.177Z,17.83
2019-04-01T21:17:29.353Z,16.03
2019-04-01T21:20:02.356Z,15.93
2019-04-01T21:22:36.665Z,15.97
2019-04-01T21:25:10.053Z,15.97
2019-04-01T21:27:43.138Z,16.73
2019-04-01T21:30:16.161Z,16.93
2019-04-01T21:32:49.164Z,14.67
2019-04-01T21:35:22.137Z,13.73
2019-04-01T21:37:55.135Z,15.13
2019-04-01T21:40:28.465Z,15.93
2019-04-01T21:43:03.218Z,17.53
2019-04-01T21:45:36.180Z,12.97
2019-04-01T21:48:10.379Z,14.80
2019-04-01T21:50:43.656Z,14.80
2019-04-01T21:53:16.651Z,15.17
2019-04-01T21:55:50.192Z,11.70
2019-04-01T21:58:23.194Z,15.57
2019-04-01T22:00:56.221Z,15.80
2019-04-01T22:03:29.209Z,22.00
2019-04-01T22:06:02.183Z,14.13
2019-04-01T22:08:36.125Z,17.87
2019-04-01T22:11:09.218Z,15.30
2019-04-01T22:13:42.337Z,18.40
2019-04-01T22:16:15.336Z,14.43
2019-04-01T22:18:48.353Z,16.97
2019-04-01T22:21:21.400Z,14.10
2019-04-01T22:23:54.428Z,22.60
2019-04-01T22:26:28.053Z,19.10
2019-04-01T22:29:01.428Z,15.20
2019-04-01T22:31:34.402Z,15.13
2019-04-01T22:34:08.277Z,15.97
2019-04-01T22:36:42.117Z,23.87
2019-04-01T22:39:21.921Z,14.03
2019-04-01T22:41:49.869Z,19.10
2019-04-01T22:44:23.411Z,18.60
2019-04-01T22:46:56.848Z,22.87
2019-04-01T22:49:29.870Z,17.53
2019-04-01T22:52:02.844Z,15.00
2019-04-01T22:54:35.837Z,17.67
2019-04-01T22:57:08.818Z,17.43
2019-04-01T22:59:41.986Z,14.87
2019-04-01T23:02:14.981Z,16.50
2019-04-01T23:04:47.982Z,18.43
2019-04-01T23:07:20.945Z,27.10
2019-04-01T23:09:54.313Z,15.33
2019-04-01T23:12:27.345Z,16.83
2019-04-01T23:15:00.198Z,14.23
2019-04-01T23:17:33.106Z,15.67
2019-04-01T23:20:06.175Z,16.17
2019-04-01T23:22:39.228Z,18.77
2019-04-01T23:25:12.228Z,16.20
2019-04-01T23:27:45.211Z,16.27
2019-04-01T23:30:19.357Z,17.17
2019-04-01T23:32:52.896Z,20.10
2019-04-01T23:35:25.997Z,18.00
2019-04-01T23:37:58.968Z,18.83
2019-04-01T23:40:32.437Z,16.03
2019-04-01T23:43:05.792Z,14.27
2019-04-01T23:45:38.802Z,17.23
2019-04-01T23:48:11.756Z,13.87
2019-04-01T23:50:44.600Z,19.73
2019-04-01T23:53:17.421Z,15.27
2019-04-01T23:55:50.411Z,18.40
2019-04-01T23:58:23.401Z,15.63
